createdAt,value
2023-03-30T00:01:01.170Z,100230.22
2023-03-30T00:03:28.623Z,100293.28
2023-03-30T00:05:57.022Z,100278.00
2023-03-30T00:08:29.880Z,100277.13
2023-03-30T00:11:07.026Z,100284.06
2023-03-30T00:13:36.042Z,100270.63
2023-03-30T00:16:03.561Z,100237.91
2023-03-30T00:18:30.148Z,100255.19
2023-03-30T00:20:58.548Z,100231.78
2023-03-30T00:23:26.303Z,100248.63
2023-03-30T00:25:52.936Z,100249.38
2023-03-30T00:28:19.546Z,100243.69
2023-03-30T00:30:48.115Z,100217.47
2023-03-30T00:33:14.769Z,100222.72
2023-03-30T00:35:41.678Z,100223.84
2023-03-30T00:38:08.528Z,100199.59
2023-03-30T00:40:36.796Z,100189.81
2023-03-30T00:43:07.637Z,100176.47
2023-03-30T00:45:36.510Z,100191.41
2023-03-30T00:48:17.915Z,100133.28
2023-03-30T00:50:59.435Z,100170.81
2023-03-30T00:53:35.383Z,100167.53
2023-03-30T00:56:05.005Z,100108.53
2023-03-30T00:58:32.228Z,100084.72
2023-03-30T01:01:02.098Z,100135.22
2023-03-30T01:03:32.649Z,100128.97
2023-03-30T01:06:02.695Z,100118.22
2023-03-30T01:08:32.709Z,100071.63
2023-03-30T01:11:01.860Z,100122.03
2023-03-30T01:13:30.949Z,100087.69
2023-03-30T01:16:05.580Z,100091.63
2023-03-30T01:18:49.816Z,100084.06
2023-03-30T01:21:31.319Z,100091.69
2023-03-30T01:24:16.088Z,100059.84
2023-03-30T01:26:48.668Z,100099.34
2023-03-30T01:29:52.936Z,100087.47
2023-03-30T01:32:38.312Z,100080.41
2023-03-30T01:35:42.353Z,100081.22
2023-03-30T01:38:30.220Z,100075.84
2023-03-30T01:41:12.769Z,100088.28
2023-03-30T01:43:45.446Z,100076.41
2023-03-30T01:46:32.903Z,100038.94
2023-03-30T01:49:16.230Z,100038.16
2023-03-30T01:51:49.647Z,100028.66
2023-03-30T01:54:27.065Z,99994.44
2023-03-30T01:57:00.773Z,100033.31
2023-03-30T01:59:32.763Z,100030.75
2023-03-30T02:02:04.378Z,100017.03
2023-03-30T02:04:36.337Z,99954.28
2023-03-30T02:07:13.964Z,99932.69
2023-03-30T02:09:42.310Z,99943.53
2023-03-30T02:12:11.227Z,99909.69
2023-03-30T02:14:41.171Z,99909.53
2023-03-30T02:17:17.398Z,99888.16
2023-03-30T02:19:47.629Z,99869.50
2023-03-30T02:22:16.422Z,99874.94
2023-03-30T02:24:45.449Z,99852.25
2023-03-30T02:27:13.161Z,99818.56
2023-03-30T02:29:43.523Z,99867.69
2023-03-30T02:32:45.764Z,99860.31
2023-03-30T02:35:37.752Z,99865.84
2023-03-30T02:38:25.016Z,99857.66
2023-03-30T02:40:51.918Z,99833.69
2023-03-30T02:43:44.740Z,99770.31
2023-03-30T02:46:17.752Z,99742.63
2023-03-30T02:49:17.282Z,99813.16
2023-03-30T02:51:55.421Z,99786.44
2023-03-30T02:54:47.667Z,99815.16
2023-03-30T02:57:20.354Z,99796.16
2023-03-30T02:59:56.207Z,99683.94
2023-03-30T03:02:30.570Z,99770.53
2023-03-30T03:04:57.758Z,99709.03
2023-03-30T03:07:25.754Z,99773.06
2023-03-30T03:09:52.444Z,99771.91
2023-03-30T03:12:19.016Z,99757.38
2023-03-30T03:14:45.625Z,99727.59
2023-03-30T03:17:13.860Z,99749.88
2023-03-30T03:19:40.570Z,99749.91
2023-03-30T03:22:07.098Z,99702.53
2023-03-30T03:24:34.120Z,99722.44
2023-03-30T03:27:01.179Z,99684.38
2023-03-30T03:29:27.823Z,99718.44
2023-03-30T03:31:54.647Z,99714.75
2023-03-30T03:34:21.376Z,99688.16
2023-03-30T03:36:52.374Z,99703.00
2023-03-30T03:39:19.456Z,99645.91
2023-03-30T03:41:46.130Z,99599.91
2023-03-30T03:44:12.803Z,99653.94
2023-03-30T03:46:39.466Z,99659.63
2023-03-30T03:49:06.165Z,99657.72
2023-03-30T03:51:33.949Z,99631.47
2023-03-30T03:54:00.862Z,99657.25
2023-03-30T03:56:27.692Z,99625.88
2023-03-30T03:58:54.305Z,99612.19
2023-03-30T04:01:20.880Z,99628.84
2023-03-30T04:03:47.499Z,99625.88
2023-03-30T04:06:14.102Z,99640.47
2023-03-30T04:08:40.693Z,99652.53
2023-03-30T04:11:10.182Z,99672.81
2023-03-30T04:13:36.764Z,99678.75
2023-03-30T04:16:03.823Z,99614.88
2023-03-30T04:18:33.931Z,99664.44
2023-03-30T04:21:05.846Z,99663.22
2023-03-30T04:23:36.324Z,99654.66
2023-03-30T04:26:05.370Z,99647.94
2023-03-30T04:28:33.157Z,99656.00
2023-03-30T04:31:01.934Z,99652.22
2023-03-30T04:33:29.318Z,99600.75
2023-03-30T04:35:56.701Z,99663.31
2023-03-30T04:38:23.433Z,99619.78
2023-03-30T04:40:51.787Z,99648.88
2023-03-30T04:43:22.751Z,99635.63
2023-03-30T04:45:50.954Z,99642.31
2023-03-30T04:48:18.711Z,99623.19
2023-03-30T04:50:47.084Z,99626.78
2023-03-30T04:53:15.355Z,99615.66
2023-03-30T04:55:42.722Z,99618.03
2023-03-30T04:58:12.307Z,99612.19
2023-03-30T05:00:41.948Z,99617.88
2023-03-30T05:03:08.772Z,99624.41
2023-03-30T05:05:35.385Z,99615.28
2023-03-30T05:08:01.992Z,99553.22
2023-03-30T05:10:28.778Z,99553.28
2023-03-30T05:12:56.212Z,99601.88
2023-03-30T05:15:23.174Z,99561.91
2023-03-30T05:17:49.929Z,99582.59
2023-03-30T05:20:17.112Z,99596.56
2023-03-30T05:22:43.760Z,99595.81
2023-03-30T05:25:10.541Z,99594.34
2023-03-30T05:27:37.153Z,99540.41
2023-03-30T05:30:04.433Z,99629.09
2023-03-30T05:32:31.126Z,99604.88
2023-03-30T05:34:57.949Z,99629.09
2023-03-30T05:37:24.674Z,99558.31
2023-03-30T05:39:51.659Z,99608.53
2023-03-30T05:42:18.317Z,99573.44
2023-03-30T05:44:44.894Z,99580.34
2023-03-30T05:47:11.459Z,99551.47
2023-03-30T05:49:38.053Z,99572.97
2023-03-30T05:52:04.998Z,99545.94
2023-03-30T05:54:32.151Z,99606.00
2023-03-30T05:56:58.908Z,99659.06
2023-03-30T05:59:25.747Z,99602.56
2023-03-30T06:01:52.280Z,99591.72
2023-03-30T06:04:19.169Z,99614.75
2023-03-30T06:06:46.102Z,99584.00
2023-03-30T06:09:12.696Z,99475.09
2023-03-30T06:11:39.294Z,99224.31
2023-03-30T06:14:06.046Z,98854.16
2023-03-30T06:16:32.992Z,98651.69
2023-03-30T06:18:59.677Z,98343.97
2023-03-30T06:21:26.344Z,98249.25
2023-03-30T06:23:52.916Z,98218.94
2023-03-30T06:26:19.998Z,98189.34
2023-03-30T06:28:46.676Z,98196.09
2023-03-30T06:31:13.234Z,98198.63
2023-03-30T06:33:41.780Z,98303.47
2023-03-30T06:36:11.745Z,98338.53
2023-03-30T06:38:38.821Z,98378.66
2023-03-30T06:41:08.479Z,98431.13
2023-03-30T06:43:35.126Z,98488.00
2023-03-30T06:46:01.745Z,98534.38
2023-03-30T06:48:28.491Z,98617.47
2023-03-30T06:50:55.201Z,98645.53
2023-03-30T06:53:23.177Z,98665.28
2023-03-30T06:55:55.100Z,98661.13
2023-03-30T06:58:22.141Z,98782.75
2023-03-30T07:00:48.987Z,98758.50
2023-03-30T07:03:19.306Z,98768.63
2023-03-30T07:05:52.571Z,98901.78
2023-03-30T07:08:20.100Z,99011.00
2023-03-30T07:10:48.150Z,99093.03
2023-03-30T07:13:16.717Z,99103.38
2023-03-30T07:15:43.468Z,99258.94
2023-03-30T07:18:10.216Z,99206.69
2023-03-30T07:20:37.014Z,99288.28
2023-03-30T07:23:03.960Z,99301.34
2023-03-30T07:25:33.482Z,99404.59
2023-03-30T07:28:00.119Z,99420.22
2023-03-30T07:30:27.689Z,99441.66
2023-03-30T07:32:56.252Z,99466.25
2023-03-30T07:35:24.862Z,99442.88
2023-03-30T07:37:51.739Z,99479.13
2023-03-30T07:40:19.815Z,99489.03
2023-03-30T07:42:47.658Z,99525.41
2023-03-30T07:45:16.697Z,99599.97
2023-03-30T07:47:43.608Z,99587.81
2023-03-30T07:50:10.653Z,99604.31
2023-03-30T07:52:37.976Z,99623.16
2023-03-30T07:55:06.307Z,99615.00
2023-03-30T07:57:33.031Z,99620.69
2023-03-30T07:59:59.747Z,99616.44
2023-03-30T08:02:27.328Z,99632.41
2023-03-30T08:04:54.465Z,99708.53
2023-03-30T08:07:21.209Z,99736.63
2023-03-30T08:09:47.768Z,99721.06
2023-03-30T08:12:14.417Z,99736.06
2023-03-30T08:14:41.043Z,99798.97
2023-03-30T08:17:07.814Z,99819.50
2023-03-30T08:19:34.391Z,99824.81
2023-03-30T08:22:02.247Z,99775.09
2023-03-30T08:24:28.940Z,99783.44
2023-03-30T08:26:55.641Z,99816.31
2023-03-30T08:29:22.516Z,99834.84
2023-03-30T08:31:51.192Z,99837.94
2023-03-30T08:34:18.300Z,99849.00
2023-03-30T08:36:44.881Z,99866.91
2023-03-30T08:39:11.664Z,99871.50
2023-03-30T08:42:02.971Z,99882.72
2023-03-30T08:44:32.932Z,99837.44
2023-03-30T08:47:02.235Z,99802.00
2023-03-30T08:49:32.931Z,99759.09
2023-03-30T08:52:03.182Z,99668.72
2023-03-30T08:54:32.457Z,99332.38
2023-03-30T08:57:12.402Z,99463.22
2023-03-30T08:59:45.381Z,99582.00
2023-03-30T09:02:24.334Z,99613.72
2023-03-30T09:05:06.645Z,99616.22
2023-03-30T09:07:47.941Z,99684.69
2023-03-30T09:10:16.021Z,99749.44
2023-03-30T09:12:52.418Z,99749.56
2023-03-30T09:15:25.732Z,99790.50
2023-03-30T09:17:56.117Z,99797.59
2023-03-30T09:20:25.627Z,99811.31
2023-03-30T09:22:54.682Z,99765.91
2023-03-30T09:25:34.716Z,99843.66
2023-03-30T09:28:24.168Z,99886.91
2023-03-30T09:31:00.679Z,99910.59
2023-03-30T09:33:45.991Z,99908.19
2023-03-30T09:36:22.067Z,99915.38
2023-03-30T09:38:50.478Z,99926.81
2023-03-30T09:41:23.093Z,99926.25
2023-03-30T09:43:51.884Z,99847.94
2023-03-30T09:46:18.710Z,99917.31
2023-03-30T09:48:47.424Z,99934.69
2023-03-30T09:51:34.327Z,99935.69
2023-03-30T09:54:03.784Z,99938.88
2023-03-30T09:56:51.567Z,99934.84
2023-03-30T09:59:27.859Z,99930.59
2023-03-30T10:02:10.712Z,99946.63
2023-03-30T10:05:00.377Z,99954.25
2023-03-30T10:07:38.132Z,99975.16
2023-03-30T10:10:33.560Z,99964.47
2023-03-30T10:13:13.536Z,99958.63
2023-03-30T10:15:46.291Z,99987.59
2023-03-30T10:18:43.947Z,99997.13
2023-03-30T10:21:13.564Z,99980.53
2023-03-30T10:23:45.206Z,99993.00
2023-03-30T10:26:19.716Z,99981.34
2023-03-30T10:28:57.665Z,99957.38
2023-03-30T10:31:28.316Z,99937.38
2023-03-30T10:33:57.996Z,99956.66
2023-03-30T10:36:34.084Z,99967.34
2023-03-30T10:39:08.229Z,99961.63
2023-03-30T10:41:37.213Z,99903.72
2023-03-30T10:44:25.090Z,99969.66
2023-03-30T10:47:00.958Z,99950.44
2023-03-30T10:49:51.789Z,99911.50
2023-03-30T10:52:34.683Z,99955.16
2023-03-30T10:55:38.826Z,99968.41
2023-03-30T10:58:27.380Z,99990.16
2023-03-30T11:01:26.124Z,99949.97
2023-03-30T11:04:04.492Z,99962.97
2023-03-30T11:06:41.760Z,99965.88
2023-03-30T11:09:15.462Z,99966.69
2023-03-30T11:11:49.867Z,99982.44
2023-03-30T11:14:27.059Z,99996.84
2023-03-30T11:17:04.698Z,100007.56
2023-03-30T11:19:39.987Z,99994.44
2023-03-30T11:22:17.744Z,100012.75
2023-03-30T11:24:49.879Z,100028.13
2023-03-30T11:27:24.451Z,100019.31
2023-03-30T11:30:03.414Z,99983.50
2023-03-30T11:32:53.975Z,100049.47
2023-03-30T11:35:27.333Z,100050.88
2023-03-30T11:38:21.571Z,100073.94
2023-03-30T11:40:54.208Z,100090.00
2023-03-30T11:43:23.628Z,100109.53
2023-03-30T11:46:17.384Z,100088.19
2023-03-30T11:49:13.423Z,100108.13
2023-03-30T11:51:52.873Z,100105.66
2023-03-30T11:54:29.021Z,100134.53
2023-03-30T11:57:11.374Z,100099.28
2023-03-30T12:00:08.448Z,100101.34
2023-03-30T12:03:23.047Z,100104.63
2023-03-30T12:06:17.308Z,100073.09
2023-03-30T12:08:57.606Z,100084.94
2023-03-30T12:11:44.756Z,100117.38
2023-03-30T12:14:34.588Z,100121.75
2023-03-30T12:17:39.308Z,100116.34
2023-03-30T12:20:29.806Z,100107.25
2023-03-30T12:23:06.557Z,100069.22
2023-03-30T12:25:41.150Z,100112.44
2023-03-30T12:28:18.056Z,100109.59
2023-03-30T12:30:55.473Z,94547.56
2023-03-30T12:33:34.594Z,93836.72
2023-03-30T12:36:04.223Z,94120.34
2023-03-30T12:38:58.212Z,94690.59
2023-03-30T12:41:27.470Z,95056.28
2023-03-30T12:44:32.622Z,95570.75
2023-03-30T12:47:18.574Z,95819.41
2023-03-30T12:50:04.221Z,96057.44
2023-03-30T12:52:58.007Z,96414.69
2023-03-30T12:55:27.586Z,96653.38
2023-03-30T12:58:00.165Z,97037.19
2023-03-30T13:00:51.214Z,97432.50
2023-03-30T13:03:53.371Z,98254.53
2023-03-30T13:06:31.744Z,98444.56
2023-03-30T13:09:31.808Z,98497.63
2023-03-30T13:11:58.345Z,98630.09
2023-03-30T13:14:31.200Z,98986.16
2023-03-30T13:17:01.035Z,99231.22
2023-03-30T13:19:33.794Z,99312.56
2023-03-30T13:22:12.901Z,99418.84
2023-03-30T13:24:42.920Z,100048.91
2023-03-30T13:27:18.438Z,100095.47
2023-03-30T13:30:09.380Z,100095.63
2023-03-30T13:32:38.743Z,100124.25
2023-03-30T13:35:14.186Z,100132.81
2023-03-30T13:38:19.967Z,100129.00
2023-03-30T13:41:04.452Z,100133.16
2023-03-30T13:43:54.000Z,100173.72
2023-03-30T13:46:35.638Z,100181.34
2023-03-30T13:49:17.317Z,100186.56
2023-03-30T13:51:45.500Z,100169.69
2023-03-30T13:54:17.881Z,100175.03
2023-03-30T13:56:49.782Z,100181.44
2023-03-30T13:59:20.116Z,100166.69
2023-03-30T14:01:53.078Z,100184.66
2023-03-30T14:04:19.939Z,100148.03
2023-03-30T14:06:50.508Z,100137.84
2023-03-30T14:09:27.854Z,100187.53
2023-03-30T14:12:04.709Z,100210.59
2023-03-30T14:14:37.509Z,100182.88
2023-03-30T14:17:18.424Z,100156.88
2023-03-30T14:20:26.609Z,100191.75
2023-03-30T14:22:56.047Z,100144.34
2023-03-30T14:25:33.714Z,100197.34
2023-03-30T14:28:12.448Z,100198.84
2023-03-30T14:30:39.093Z,100185.78
2023-03-30T14:33:11.275Z,100189.16
2023-03-30T14:35:43.028Z,100146.91
2023-03-30T14:38:34.877Z,100188.66
2023-03-30T14:41:01.717Z,100137.13
2023-03-30T14:43:31.641Z,100180.59
2023-03-30T14:46:02.878Z,100136.28
2023-03-30T14:48:36.454Z,100147.53
2023-03-30T14:51:07.958Z,100165.22
2023-03-30T14:53:35.641Z,100162.66
2023-03-30T14:56:03.939Z,100138.59
2023-03-30T14:58:32.836Z,100163.16
2023-03-30T15:01:09.228Z,100124.88
2023-03-30T15:03:37.962Z,100139.84
2023-03-30T15:06:07.076Z,100166.34
2023-03-30T15:08:37.164Z,100166.50
2023-03-30T15:11:15.652Z,100176.00
2023-03-30T15:13:47.126Z,100177.91
2023-03-30T15:16:20.043Z,100176.44
2023-03-30T15:18:46.952Z,100187.03
2023-03-30T15:21:14.168Z,100173.41
2023-03-30T15:23:45.034Z,100182.56
2023-03-30T15:26:12.794Z,100143.72
2023-03-30T15:28:58.054Z,100163.91
2023-03-30T15:31:28.310Z,100160.94
2023-03-30T15:33:57.853Z,100154.84
2023-03-30T15:36:29.011Z,100156.34
2023-03-30T15:38:58.983Z,100176.66
2023-03-30T15:41:48.809Z,100187.84
2023-03-30T15:44:20.226Z,100199.91
2023-03-30T15:46:49.568Z,100174.22
2023-03-30T15:49:19.112Z,100032.59
2023-03-30T15:51:55.197Z,99213.78
2023-03-30T15:54:25.108Z,99181.09
2023-03-30T15:57:13.543Z,99145.97
2023-03-30T15:59:53.672Z,99236.75
2023-03-30T16:02:35.913Z,99341.34
2023-03-30T16:05:04.724Z,99362.47
2023-03-30T16:07:31.998Z,99417.59
2023-03-30T16:09:58.880Z,99338.47
2023-03-30T16:12:28.239Z,99403.16
2023-03-30T16:14:56.133Z,99417.66
2023-03-30T16:17:23.080Z,99401.34
2023-03-30T16:19:49.650Z,99388.06
2023-03-30T16:22:16.531Z,99428.66
2023-03-30T16:24:43.842Z,99484.47
2023-03-30T16:27:12.195Z,99460.94
2023-03-30T16:29:39.015Z,99461.00
2023-03-30T16:32:05.769Z,99454.84
2023-03-30T16:34:32.494Z,99403.66
2023-03-30T16:36:59.130Z,99482.88
2023-03-30T16:39:28.523Z,99476.25
2023-03-30T16:41:56.171Z,99443.75
2023-03-30T16:44:24.971Z,99495.69
2023-03-30T16:46:52.496Z,99437.94
2023-03-30T16:49:22.538Z,99488.78
2023-03-30T16:51:49.559Z,99522.94
2023-03-30T16:54:29.436Z,99493.28
2023-03-30T16:56:58.845Z,99556.47
2023-03-30T16:59:29.209Z,99552.59
2023-03-30T17:01:56.328Z,99557.66
2023-03-30T17:04:23.055Z,99532.00
2023-03-30T17:06:49.700Z,99527.22
2023-03-30T17:09:18.997Z,99568.13
2023-03-30T17:11:47.440Z,99576.25
2023-03-30T17:14:15.016Z,99595.75
2023-03-30T17:16:42.499Z,99533.94
2023-03-30T17:19:13.806Z,99375.34
2023-03-30T17:21:43.101Z,99300.91
2023-03-30T17:24:15.309Z,99285.41
2023-03-30T17:26:42.220Z,99294.00
2023-03-30T17:29:09.917Z,99327.09
2023-03-30T17:31:38.478Z,99366.38
2023-03-30T17:34:06.876Z,99286.75
2023-03-30T17:36:33.649Z,99374.50
2023-03-30T17:39:04.802Z,99447.63
2023-03-30T17:41:33.817Z,99453.53
2023-03-30T17:44:00.414Z,99435.63
2023-03-30T17:46:27.577Z,99491.94
2023-03-30T17:48:54.405Z,99498.81
2023-03-30T17:51:21.262Z,99482.22
2023-03-30T17:53:48.005Z,99480.56
2023-03-30T17:56:14.678Z,99471.84
2023-03-30T17:58:41.321Z,99480.13
2023-03-30T18:01:09.552Z,99444.06
2023-03-30T18:03:38.634Z,99412.88
2023-03-30T18:06:06.066Z,99463.28
2023-03-30T18:08:32.847Z,99443.56
2023-03-30T18:11:00.995Z,99472.72
2023-03-30T18:13:29.567Z,99386.63
2023-03-30T18:15:58.628Z,99507.81
2023-03-30T18:18:28.042Z,99512.06
2023-03-30T18:21:02.857Z,99479.25
2023-03-30T18:23:34.580Z,99517.81
2023-03-30T18:26:02.117Z,99503.50
2023-03-30T18:28:29.296Z,99529.81
2023-03-30T18:30:57.692Z,99467.63
2023-03-30T18:33:25.228Z,99484.59
2023-03-30T18:35:53.371Z,99448.81
2023-03-30T18:38:21.836Z,99464.09
2023-03-30T18:40:57.745Z,99387.41
2023-03-30T18:43:26.609Z,99383.44
2023-03-30T18:45:54.595Z,99332.94
2023-03-30T18:48:21.762Z,99333.88
2023-03-30T18:50:54.883Z,99352.78
2023-03-30T18:53:26.646Z,99300.91
2023-03-30T18:55:57.149Z,99288.31
2023-03-30T18:58:26.554Z,99301.47
2023-03-30T19:00:54.472Z,99297.03
2023-03-30T19:03:22.624Z,99273.06
2023-03-30T19:05:50.597Z,99247.16
2023-03-30T19:08:19.949Z,99296.31
2023-03-30T19:10:50.030Z,99275.88
2023-03-30T19:13:19.039Z,99266.06
2023-03-30T19:15:46.899Z,99220.34
2023-03-30T19:18:14.501Z,99177.22
2023-03-30T19:20:42.158Z,99128.69
2023-03-30T19:23:12.915Z,99139.34
2023-03-30T19:25:40.492Z,99153.09
2023-03-30T19:28:08.124Z,99126.91
2023-03-30T19:30:39.266Z,99142.25
2023-03-30T19:33:09.434Z,99162.22
2023-03-30T19:35:36.171Z,99178.56
2023-03-30T19:38:03.262Z,99230.22
2023-03-30T19:40:29.907Z,99189.22
2023-03-30T19:42:56.518Z,99247.94
2023-03-30T19:45:23.991Z,99271.34
2023-03-30T19:47:51.690Z,99284.59
2023-03-30T19:50:20.309Z,99266.59
2023-03-30T19:52:50.151Z,99236.38
2023-03-30T19:55:20.618Z,99192.09
2023-03-30T19:57:47.396Z,99001.81
2023-03-30T20:00:17.239Z,98895.81
2023-03-30T20:02:50.154Z,98834.00
2023-03-30T20:05:18.043Z,98808.44
2023-03-30T20:07:46.200Z,98764.25
2023-03-30T20:10:16.786Z,98803.78
2023-03-30T20:12:43.617Z,98774.41
2023-03-30T20:15:11.400Z,98811.88
2023-03-30T20:17:39.599Z,98824.09
2023-03-30T20:20:09.342Z,98802.50
2023-03-30T20:22:37.271Z,98846.75
2023-03-30T20:25:06.661Z,98807.59
2023-03-30T20:27:33.952Z,98807.94
2023-03-30T20:30:01.319Z,98807.03
2023-03-30T20:32:28.074Z,98799.84
2023-03-30T20:34:54.808Z,98825.00
2023-03-30T20:37:21.508Z,98886.38
2023-03-30T20:39:50.107Z,98802.94
2023-03-30T20:42:18.349Z,98877.44
2023-03-30T20:44:50.378Z,98842.78
2023-03-30T20:47:18.044Z,98856.31
2023-03-30T20:49:46.402Z,98666.06
2023-03-30T20:52:13.311Z,98809.91
2023-03-30T20:54:41.341Z,98651.06
2023-03-30T20:57:08.126Z,98590.09
2023-03-30T20:59:34.885Z,98511.59
2023-03-30T21:02:01.814Z,98581.66
2023-03-30T21:04:28.945Z,98593.66
2023-03-30T21:06:56.044Z,98069.72
2023-03-30T21:09:22.721Z,96190.81
2023-03-30T21:11:49.410Z,96142.53
2023-03-30T21:14:16.082Z,96294.75
2023-03-30T21:16:42.898Z,96402.63
2023-03-30T21:19:11.300Z,96125.22
2023-03-30T21:21:38.244Z,95592.69
2023-03-30T21:24:06.775Z,95631.97
2023-03-30T21:26:33.749Z,95848.00
2023-03-30T21:29:00.627Z,96090.00
2023-03-30T21:31:27.456Z,96085.13
2023-03-30T21:33:54.327Z,96043.22
2023-03-30T21:36:21.097Z,95957.56
2023-03-30T21:38:48.748Z,95798.69
2023-03-30T21:41:18.075Z,95855.91
2023-03-30T21:43:47.479Z,95956.50
2023-03-30T21:46:22.735Z,96049.28
2023-03-30T21:48:53.777Z,95944.91
2023-03-30T21:51:24.445Z,96017.03
2023-03-30T21:53:53.275Z,96072.69
2023-03-30T21:56:22.521Z,95863.28
2023-03-30T21:58:49.571Z,95968.06
2023-03-30T22:01:17.166Z,96003.75
2023-03-30T22:03:45.855Z,95924.69
2023-03-30T22:06:14.558Z,95889.47
2023-03-30T22:08:41.809Z,95969.00
2023-03-30T22:11:15.172Z,96095.09
2023-03-30T22:13:42.189Z,96142.94
2023-03-30T22:16:16.455Z,96020.88
2023-03-30T22:18:44.116Z,96041.50
2023-03-30T22:21:17.170Z,96102.88
2023-03-30T22:23:44.254Z,96218.63
2023-03-30T22:26:12.081Z,96261.53
2023-03-30T22:28:39.143Z,96465.50
2023-03-30T22:31:11.000Z,96638.06
2023-03-30T22:33:38.064Z,96784.34
2023-03-30T22:36:07.602Z,96847.94
2023-03-30T22:38:34.578Z,96917.06
2023-03-30T22:41:06.513Z,96951.09
2023-03-30T22:43:33.813Z,96993.13
2023-03-30T22:46:00.486Z,97022.66
2023-03-30T22:48:27.126Z,97052.88
2023-03-30T22:50:53.700Z,97057.97
2023-03-30T22:53:20.304Z,96985.22
2023-03-30T22:55:48.087Z,97013.31
2023-03-30T22:58:15.481Z,97031.31
2023-03-30T23:00:42.287Z,97042.94
2023-03-30T23:03:09.032Z,97060.84
2023-03-30T23:05:35.743Z,97065.53
2023-03-30T23:08:02.493Z,97001.91
2023-03-30T23:10:33.876Z,97067.16
2023-03-30T23:13:00.665Z,97017.56
2023-03-30T23:15:29.364Z,96789.63
2023-03-30T23:17:56.665Z,96380.97
2023-03-30T23:20:23.344Z,96029.13
2023-03-30T23:22:50.919Z,95554.91
2023-03-30T23:25:17.774Z,95433.97
2023-03-30T23:27:44.407Z,95543.59
2023-03-30T23:30:11.842Z,95773.47
2023-03-30T23:32:38.616Z,95954.34
2023-03-30T23:35:05.597Z,96165.88
2023-03-30T23:37:32.611Z,96264.34
2023-03-30T23:40:01.794Z,96467.22
2023-03-30T23:42:28.946Z,96588.78
2023-03-30T23:44:55.992Z,96801.00
2023-03-30T23:47:22.662Z,96885.31
2023-03-30T23:49:49.325Z,97032.53
2023-03-30T23:52:16.092Z,97109.63
2023-03-30T23:54:42.735Z,97185.84
2023-03-30T23:57:09.847Z,97258.63
2023-03-30T23:59:37.293Z,97282.81
